Time;durP1;ratioP1;P1;durP2;ratioP2;P2;SDS_P1;SDS_P2;PMS_P1;PMS_P2;Temp;Humidity;BMP_temperature;BMP_pressure;BME280_temperature;BME280_humidity;BME280_pressure;Samples;Min_cycle;Max_cycle;Signal;HPM_P1;HPM_P2
2023/04/11 00:02:03;;;;;;;16.25;2.65;;;;;;;;;;5016137;28;20057;-77
2023/04/11 00:04:32;;;;;;;20.55;3.38;;;;;;;;;;5024249;28;20090;-78
2023/04/11 00:06:59;;;;;;;27.50;3.90;;;;;;;;;;5027320;28;20077;-78
2023/04/11 00:09:26;;;;;;;27.65;3.45;;;;;;;;;;5025953;28;20054;-77
2023/04/11 00:11:52;;;;;;;26.40;3.80;;;;;;;;;;5018396;28;20584;-78
2023/04/11 00:14:19;;;;;;;25.55;3.53;;;;;;;;;;5020847;28;20058;-77
2023/04/11 00:16:48;;;;;;;26.67;4.47;;;;;;;;;;5026912;28;20061;-78
2023/04/11 00:19:15;;;;;;;29.35;4.03;;;;;;;;;;5024834;28;20104;-78
2023/04/11 00:21:42;;;;;;;30.10;4.28;;;;;;;;;;5014392;28;20141;-78
2023/04/11 00:24:09;;;;;;;30.83;4.60;;;;;;;;;;5024631;28;20085;-78
2023/04/11 00:26:35;;;;;;;25.90;3.65;;;;;;;;;;5008858;28;20054;-78
2023/04/11 00:29:02;;;;;;;26.67;4.57;;;;;;;;;;5013201;28;20093;-78
2023/04/11 00:31:28;;;;;;;30.17;3.55;;;;;;;;;;5017388;28;20456;-78
2023/04/11 00:33:55;;;;;;;29.33;4.75;;;;;;;;;;5012289;28;20049;-78
2023/04/11 00:36:21;;;;;;;25.10;3.95;;;;;;;;;;5020441;28;20513;-77
2023/04/11 00:38:48;;;;;;;24.25;3.63;;;;;;;;;;5026984;28;20528;-78
2023/04/11 00:41:14;;;;;;;31.25;4.32;;;;;;;;;;5017590;28;20062;-78
2023/04/11 00:43:41;;;;;;;29.77;4.82;;;;;;;;;;5007459;28;20059;-78
2023/04/11 00:46:08;;;;;;;25.83;3.72;;;;;;;;;;5010294;28;20833;-78
2023/04/11 00:48:34;;;;;;;27.85;3.90;;;;;;;;;;5009929;28;20057;-78
2023/04/11 00:51:01;;;;;;;20.90;3.30;;;;;;;;;;5018621;28;20542;-78
2023/04/11 00:53:31;;;;;;;29.45;3.92;;;;;;;;;;5016933;28;20603;-78
2023/04/11 00:55:58;;;;;;;32.72;4.18;;;;;;;;;;5017287;28;20049;-78
2023/04/11 00:58:25;;;;;;;29.75;3.35;;;;;;;;;;5024690;28;20124;-79
2023/04/11 01:00:52;;;;;;;21.25;3.63;;;;;;;;;;5023913;28;20065;-78
2023/04/11 01:03:18;;;;;;;26.38;3.83;;;;;;;;;;5005730;28;20063;-78
2023/04/11 01:05:45;;;;;;;20.85;4.25;;;;;;;;;;5007825;28;20484;-78
2023/04/11 01:08:12;;;;;;;31.83;3.28;;;;;;;;;;5011495;28;20054;-78
2023/04/11 01:10:40;;;;;;;32.17;3.50;;;;;;;;;;5003788;28;20125;-78
2023/04/11 01:13:07;;;;;;;31.25;3.67;;;;;;;;;;5005146;28;20062;-78
2023/04/11 01:15:34;;;;;;;32.33;4.30;;;;;;;;;;5003422;28;20066;-78
2023/04/11 01:18:00;;;;;;;27.92;4.07;;;;;;;;;;5011538;28;20141;-78
2023/04/11 01:20:28;;;;;;;27.45;3.85;;;;;;;;;;5005854;28;20055;-78
2023/04/11 01:22:55;;;;;;;23.23;4.18;;;;;;;;;;5008715;28;20068;-78
2023/04/11 01:25:22;;;;;;;23.60;3.42;;;;;;;;;;5019804;28;20501;-78
2023/04/11 01:27:49;;;;;;;26.77;3.28;;;;;;;;;;5005711;28;20054;-78
2023/04/11 01:30:15;;;;;;;27.83;2.97;;;;;;;;;;5024104;28;20133;-78
2023/04/11 01:32:41;;;;;;;27.30;3.40;;;;;;;;;;5016897;28;20061;-78
2023/04/11 01:35:10;;;;;;;17.08;3.22;;;;;;;;;;5019884;28;20456;-78
2023/04/11 01:37:36;;;;;;;32.45;3.50;;;;;;;;;;5014275;28;20066;-78
2023/04/11 01:40:04;;;;;;;28.60;3.47;;;;;;;;;;5004190;28;20062;-78
2023/04/11 01:42:31;;;;;;;27.17;3.78;;;;;;;;;;5004220;28;20058;-78
2023/04/11 01:44:58;;;;;;;22.42;3.40;;;;;;;;;;5004974;28;20053;-78
2023/04/11 01:47:25;;;;;;;29.38;3.95;;;;;;;;;;5014245;28;20708;-78
2023/04/11 01:49:52;;;;;;;18.10;2.78;;;;;;;;;;5011320;28;20050;-79
2023/04/11 01:52:18;;;;;;;22.50;3.63;;;;;;;;;;5016543;28;20052;-78
2023/04/11 01:54:45;;;;;;;24.88;3.78;;;;;;;;;;5005479;28;20810;-78
2023/04/11 01:57:11;;;;;;;27.90;3.85;;;;;;;;;;5002946;28;20592;-78
2023/04/11 01:59:38;;;;;;;21.45;2.53;;;;;;;;;;5009029;28;20066;-78
2023/04/11 02:02:04;;;;;;;27.05;3.55;;;;;;;;;;5007248;28;21047;-79
2023/04/11 02:04:31;;;;;;;35.38;4.45;;;;;;;;;;5003972;28;20050;-79
2023/04/11 02:06:57;;;;;;;19.48;3.72;;;;;;;;;;5020028;28;20058;-79
2023/04/11 02:09:24;;;;;;;18.23;2.78;;;;;;;;;;5012128;28;20140;-79
2023/04/11 02:11:50;;;;;;;24.23;3.08;;;;;;;;;;5017549;28;20068;-79
2023/04/11 02:14:19;;;;;;;21.23;3.40;;;;;;;;;;5004527;28;20867;-78
2023/04/11 02:16:53;;;;;;;23.15;2.83;;;;;;;;;;5004686;28;20078;-79
2023/04/11 02:19:21;;;;;;;20.92;2.88;;;;;;;;;;5005969;28;20050;-78
2023/04/11 02:21:47;;;;;;;17.23;2.65;;;;;;;;;;5005399;28;20047;-79
2023/04/11 02:24:13;;;;;;;19.35;2.65;;;;;;;;;;5018095;28;20074;-78
2023/04/11 02:26:41;;;;;;;11.02;2.05;;;;;;;;;;5014666;28;21185;-79
2023/04/11 02:29:07;;;;;;;15.68;2.65;;;;;;;;;;5008628;28;20057;-79
2023/04/11 02:31:34;;;;;;;17.83;1.90;;;;;;;;;;5008327;28;20108;-78
2023/04/11 02:34:01;;;;;;;10.65;2.05;;;;;;;;;;5005517;28;20058;-79
2023/04/11 02:36:27;;;;;;;12.52;2.03;;;;;;;;;;5005774;28;20065;-79
2023/04/11 02:38:53;;;;;;;12.48;1.75;;;;;;;;;;5016567;28;20140;-78
2023/04/11 02:41:20;;;;;;;5.28;1.35;;;;;;;;;;5024143;28;20061;-77
2023/04/11 02:43:47;;;;;;;11.82;2.03;;;;;;;;;;5010141;28;20603;-79
2023/04/11 02:46:13;;;;;;;10.40;1.20;;;;;;;;;;5009812;28;20058;-79
2023/04/11 02:48:39;;;;;;;10.20;1.20;;;;;;;;;;5026231;28;20053;-78
2023/04/11 02:51:06;;;;;;;7.72;1.77;;;;;;;;;;5017315;28;20468;-79
2023/04/11 02:53:32;;;;;;;8.50;1.30;;;;;;;;;;5008935;28;20137;-79
2023/04/11 02:55:59;;;;;;;12.52;1.58;;;;;;;;;;5008512;28;20054;-79
2023/04/11 02:58:27;;;;;;;7.38;1.23;;;;;;;;;;5011707;28;20456;-79
2023/04/11 03:00:55;;;;;;;7.40;1.30;;;;;;;;;;5027805;28;20569;-79
2023/04/11 03:03:21;;;;;;;7.97;1.52;;;;;;;;;;5026615;28;20061;-79
2023/04/11 03:05:48;;;;;;;10.10;1.70;;;;;;;;;;5023409;28;20060;-79
2023/04/11 03:08:14;;;;;;;11.35;1.17;;;;;;;;;;5020210;28;20054;-79
2023/04/11 03:10:41;;;;;;;10.40;1.30;;;;;;;;;;5027052;28;21236;-77
2023/04/11 03:13:07;;;;;;;7.28;1.27;;;;;;;;;;5027411;28;20053;-79
2023/04/11 03:15:33;;;;;;;11.43;1.85;;;;;;;;;;5019159;28;20082;-79
2023/04/11 03:18:00;;;;;;;10.52;1.30;;;;;;;;;;5009209;28;20066;-78
2023/04/11 03:20:26;;;;;;;10.93;1.45;;;;;;;;;;5011997;28;20065;-78
2023/04/11 03:22:52;;;;;;;10.00;1.58;;;;;;;;;;5008823;28;20070;-79
2023/04/11 03:25:19;;;;;;;17.08;1.48;;;;;;;;;;5020713;28;20062;-79
2023/04/11 03:27:45;;;;;;;10.15;1.50;;;;;;;;;;5014568;28;20056;-78
2023/04/11 03:30:12;;;;;;;12.27;1.88;;;;;;;;;;5027971;28;20062;-79
2023/04/11 03:32:38;;;;;;;6.95;1.08;;;;;;;;;;5024493;28;20065;-79
2023/04/11 03:35:05;;;;;;;8.77;1.20;;;;;;;;;;5008580;28;20924;-79
2023/04/11 03:37:31;;;;;;;8.95;1.50;;;;;;;;;;5020871;28;20500;-78
2023/04/11 03:39:58;;;;;;;8.80;1.40;;;;;;;;;;5010713;28;20137;-78
2023/04/11 03:42:24;;;;;;;8.32;1.63;;;;;;;;;;5022015;28;20065;-79
2023/04/11 03:44:50;;;;;;;10.32;1.00;;;;;;;;;;5029114;28;20512;-79
2023/04/11 03:47:17;;;;;;;8.05;1.30;;;;;;;;;;5016091;28;20088;-78
2023/04/11 03:49:43;;;;;;;9.40;1.05;;;;;;;;;;5007577;28;20049;-78
2023/04/11 03:52:11;;;;;;;10.18;1.40;;;;;;;;;;5009515;28;20055;-78
2023/04/11 03:54:37;;;;;;;11.30;1.48;;;;;;;;;;5007756;28;20062;-78
2023/04/11 03:57:04;;;;;;;9.18;1.17;;;;;;;;;;5016286;28;20076;-78
2023/04/11 03:59:30;;;;;;;12.45;1.50;;;;;;;;;;5012658;28;20061;-79
2023/04/11 04:01:57;;;;;;;9.18;1.45;;;;;;;;;;5008391;28;20060;-78
2023/04/11 04:04:23;;;;;;;7.32;1.38;;;;;;;;;;5008972;28;20572;-78
2023/04/11 04:06:55;;;;;;;11.15;1.77;;;;;;;;;;5009767;28;20410;-79
2023/04/11 04:09:22;;;;;;;8.40;1.30;;;;;;;;;;5013972;28;20085;-78
2023/04/11 04:11:49;;;;;;;16.45;1.60;;;;;;;;;;5029124;28;20058;-79
2023/04/11 04:14:15;;;;;;;10.20;1.38;;;;;;;;;;5033118;28;20431;-79
2023/04/11 04:16:42;;;;;;;14.18;1.63;;;;;;;;;;5031416;28;20053;-80
2023/04/11 04:19:08;;;;;;;9.57;1.50;;;;;;;;;;5030788;28;20144;-79
2023/04/11 04:21:36;;;;;;;12.10;1.50;;;;;;;;;;5033245;28;20690;-79
2023/04/11 04:24:03;;;;;;;11.80;2.35;;;;;;;;;;5026413;28;20064;-78
2023/04/11 04:26:30;;;;;;;11.15;1.73;;;;;;;;;;5021935;28;20157;-78
2023/04/11 04:29:03;;;;;;;6.97;1.65;;;;;;;;;;5015478;28;20054;-79
2023/04/11 04:31:32;;;;;;;10.32;1.70;;;;;;;;;;5016820;28;20825;-78
2023/04/11 04:34:07;;;;;;;16.65;2.10;;;;;;;;;;5009716;28;20089;-79
2023/04/11 04:36:46;;;;;;;9.35;1.63;;;;;;;;;;5006747;28;20050;-79
2023/04/11 04:39:16;;;;;;;10.38;1.67;;;;;;;;;;5008547;28;20152;-79
2023/04/11 04:41:43;;;;;;;12.13;1.67;;;;;;;;;;5018893;28;20104;-78
2023/04/11 04:44:10;;;;;;;12.68;1.52;;;;;;;;;;5010280;28;20050;-79
2023/04/11 04:46:36;;;;;;;12.13;1.80;;;;;;;;;;5027014;28;20100;-78
2023/04/11 04:49:04;;;;;;;10.68;2.05;;;;;;;;;;5007968;28;20058;-78
2023/04/11 04:51:30;;;;;;;12.55;1.52;;;;;;;;;;5016503;28;20053;-79
2023/04/11 04:53:58;;;;;;;8.85;1.40;;;;;;;;;;5026438;28;20077;-79
2023/04/11 04:56:27;;;;;;;6.70;1.27;;;;;;;;;;5025101;28;20057;-79
2023/04/11 04:58:53;;;;;;;13.48;1.40;;;;;;;;;;5008481;28;20054;-79
2023/04/11 05:01:21;;;;;;;10.20;1.52;;;;;;;;;;5014741;28;20133;-78
2023/04/11 05:03:57;;;;;;;9.63;1.40;;;;;;;;;;5025495;28;20061;-79
2023/04/11 05:06:28;;;;;;;6.97;1.27;;;;;;;;;;5021767;28;20062;-78
2023/04/11 05:08:55;;;;;;;8.18;1.42;;;;;;;;;;5019894;28;20061;-78
2023/04/11 05:11:22;;;;;;;4.82;0.95;;;;;;;;;;5027256;28;20054;-78
2023/04/11 05:13:48;;;;;;;7.70;1.20;;;;;;;;;;5014939;28;20054;-78
2023/04/11 05:16:16;;;;;;;6.63;1.10;;;;;;;;;;5018175;28;20060;-79
2023/04/11 05:18:43;;;;;;;6.68;1.30;;;;;;;;;;5019303;28;20171;-79
2023/04/11 05:21:09;;;;;;;8.75;1.25;;;;;;;;;;5019043;28;20133;-79
2023/04/11 05:23:36;;;;;;;7.50;1.50;;;;;;;;;;5017843;28;20053;-78
2023/04/11 05:26:03;;;;;;;8.50;1.27;;;;;;;;;;5012409;28;20501;-78
2023/04/11 05:28:30;;;;;;;5.60;1.17;;;;;;;;;;5019683;28;20058;-77
2023/04/11 05:30:56;;;;;;;8.00;1.52;;;;;;;;;;5011904;28;20058;-78
2023/04/11 05:33:23;;;;;;;8.82;0.95;;;;;;;;;;5011321;28;20069;-78
2023/04/11 05:35:50;;;;;;;4.25;0.90;;;;;;;;;;5016802;28;20664;-78
2023/04/11 05:38:17;;;;;;;5.68;1.27;;;;;;;;;;5013500;28;20054;-78
2023/04/11 05:40:44;;;;;;;7.28;1.50;;;;;;;;;;5016839;28;20575;-78
2023/04/11 05:43:13;;;;;;;7.63;1.20;;;;;;;;;;5020985;28;20060;-78
2023/04/11 05:45:40;;;;;;;6.63;1.10;;;;;;;;;;5015186;28;20061;-78
2023/04/11 05:48:07;;;;;;;8.02;1.90;;;;;;;;;;5013729;28;20054;-78
2023/04/11 05:50:34;;;;;;;9.57;1.45;;;;;;;;;;5018410;28;20054;-78
2023/04/11 05:53:01;;;;;;;8.05;0.90;;;;;;;;;;5019738;28;20088;-78
2023/04/11 05:55:28;;;;;;;7.82;1.08;;;;;;;;;;5015372;28;20049;-78
2023/04/11 05:57:54;;;;;;;6.47;1.17;;;;;;;;;;5012569;28;20065;-78
2023/04/11 06:00:22;;;;;;;11.60;1.40;;;;;;;;;;5015439;28;20167;-78
2023/04/11 06:02:49;;;;;;;7.63;1.13;;;;;;;;;;5013070;28;20053;-78
2023/04/11 06:05:16;;;;;;;9.50;1.17;;;;;;;;;;5008546;28;20528;-78
2023/04/11 06:07:43;;;;;;;9.10;0.93;;;;;;;;;;5013333;28;20054;-78
2023/04/11 06:10:10;;;;;;;10.88;1.48;;;;;;;;;;5009619;28;20053;-78
2023/04/11 06:12:36;;;;;;;11.23;1.15;;;;;;;;;;5017353;28;20140;-78
2023/04/11 06:15:03;;;;;;;6.90;1.05;;;;;;;;;;5007788;28;20520;-79
2023/04/11 06:17:29;;;;;;;10.20;1.42;;;;;;;;;;5008232;28;20811;-78
2023/04/11 06:19:55;;;;;;;19.05;1.35;;;;;;;;;;5014179;28;20057;-78
2023/04/11 06:22:22;;;;;;;6.57;1.00;;;;;;;;;;5011757;28;20077;-78
2023/04/11 06:24:48;;;;;;;7.88;1.42;;;;;;;;;;5010357;28;20578;-78
2023/04/11 06:27:15;;;;;;;8.48;1.85;;;;;;;;;;5017225;28;20077;-78
2023/04/11 06:29:44;;;;;;;6.78;1.30;;;;;;;;;;5017193;28;20592;-79
2023/04/11 06:32:11;;;;;;;9.02;1.42;;;;;;;;;;5006573;28;20784;-78
2023/04/11 06:34:37;;;;;;;7.35;1.73;;;;;;;;;;5010642;28;20061;-78
2023/04/11 06:37:06;;;;;;;10.07;1.30;;;;;;;;;;5026041;28;20160;-79
2023/04/11 06:39:33;;;;;;;14.07;1.60;;;;;;;;;;5025148;28;20050;-79
2023/04/11 06:42:00;;;;;;;7.60;1.52;;;;;;;;;;5007552;28;20043;-79
2023/04/11 06:44:27;;;;;;;12.50;2.00;;;;;;;;;;5023555;28;20132;-78
2023/04/11 06:46:54;;;;;;;6.45;1.20;;;;;;;;;;5016721;28;20054;-78
2023/04/11 06:49:21;;;;;;;11.18;1.27;;;;;;;;;;5012778;28;20057;-78
2023/04/11 06:51:50;;;;;;;11.57;1.73;;;;;;;;;;5021779;28;20173;-78
2023/04/11 06:54:17;;;;;;;12.45;1.60;;;;;;;;;;5010688;28;20056;-78
2023/04/11 06:56:43;;;;;;;8.82;2.08;;;;;;;;;;5018424;28;20066;-78
2023/04/11 06:59:18;;;;;;;10.10;1.75;;;;;;;;;;5010727;28;20058;-78
2023/04/11 07:01:47;;;;;;;10.85;2.17;;;;;;;;;;5018848;28;20524;-78
2023/04/11 07:04:14;;;;;;;12.15;1.40;;;;;;;;;;5007247;28;20066;-77
2023/04/11 07:06:41;;;;;;;14.25;2.03;;;;;;;;;;5016706;28;20141;-78
2023/04/11 07:09:14;;;;;;;7.50;1.27;;;;;;;;;;5015441;28;20066;-79
2023/04/11 07:11:40;;;;;;;8.50;1.65;;;;;;;;;;5028519;28;20060;-78
2023/04/11 07:14:06;;;;;;;9.13;1.50;;;;;;;;;;5023344;28;20420;-79
2023/04/11 07:16:33;;;;;;;12.48;1.83;;;;;;;;;;5015766;28;20062;-79
2023/04/11 07:18:59;;;;;;;10.73;1.70;;;;;;;;;;5009509;28;20146;-77
2023/04/11 07:21:31;;;;;;;10.93;1.50;;;;;;;;;;5016128;28;20046;-79
2023/04/11 07:23:59;;;;;;;12.80;1.63;;;;;;;;;;5028628;28;20116;-78
2023/04/11 07:26:30;;;;;;;9.55;1.30;;;;;;;;;;5013177;28;20062;-79
2023/04/11 07:28:58;;;;;;;7.13;1.00;;;;;;;;;;5011374;28;21052;-78
2023/04/11 07:31:26;;;;;;;7.47;1.80;;;;;;;;;;5006669;28;21091;-77
2023/04/11 07:33:52;;;;;;;9.27;1.38;;;;;;;;;;5018928;28;20057;-78
2023/04/11 07:36:19;;;;;;;12.52;1.48;;;;;;;;;;5014868;28;20101;-78
2023/04/11 07:38:45;;;;;;;10.27;1.17;;;;;;;;;;5014529;28;20120;-78
2023/04/11 07:41:12;;;;;;;12.60;1.63;;;;;;;;;;5016861;28;20132;-78
2023/04/11 07:43:39;;;;;;;16.58;1.80;;;;;;;;;;5019586;28;20074;-79
2023/04/11 07:46:05;;;;;;;5.68;1.10;;;;;;;;;;5014915;28;20078;-79
2023/04/11 07:48:32;;;;;;;8.25;1.23;;;;;;;;;;5016969;28;20081;-80
2023/04/11 07:50:58;;;;;;;8.43;1.30;;;;;;;;;;5026799;28;20511;-78
2023/04/11 07:53:25;;;;;;;7.15;1.35;;;;;;;;;;5022039;28;20049;-77
2023/04/11 07:55:51;;;;;;;12.10;1.50;;;;;;;;;;5020446;28;20054;-78
2023/04/11 07:58:18;;;;;;;7.38;1.13;;;;;;;;;;5007320;28;20058;-78
2023/04/11 08:00:44;;;;;;;9.18;1.40;;;;;;;;;;5008204;28;20054;-78
2023/04/11 08:03:12;;;;;;;5.15;1.23;;;;;;;;;;5024963;28;20061;-78
2023/04/11 08:05:39;;;;;;;14.20;1.33;;;;;;;;;;5019437;28;20513;-77
2023/04/11 08:08:05;;;;;;;8.60;1.73;;;;;;;;;;5026307;28;20112;-79
2023/04/11 08:10:32;;;;;;;10.68;1.60;;;;;;;;;;5007047;28;20113;-78
2023/04/11 08:12:59;;;;;;;7.07;1.13;;;;;;;;;;5008427;28;20492;-78
2023/04/11 08:15:25;;;;;;;7.70;1.10;;;;;;;;;;5023139;28;20062;-79
2023/04/11 08:17:55;;;;;;;10.52;1.45;;;;;;;;;;5011776;28;20113;-78
2023/04/11 08:20:24;;;;;;;12.60;1.50;;;;;;;;;;5014249;28;20093;-76
2023/04/11 08:22:50;;;;;;;7.82;1.10;;;;;;;;;;5012006;28;20173;-77
2023/04/11 08:25:21;;;;;;;8.23;1.50;;;;;;;;;;5005827;28;20066;-77
2023/04/11 08:27:48;;;;;;;10.73;1.50;;;;;;;;;;5005244;28;20054;-77
2023/04/11 08:30:15;;;;;;;7.43;1.40;;;;;;;;;;5014398;28;20120;-75
2023/04/11 08:32:42;;;;;;;10.75;1.73;;;;;;;;;;5019421;28;20055;-75
2023/04/11 08:35:08;;;;;;;8.20;1.60;;;;;;;;;;5022081;28;20840;-77
2023/04/11 08:37:35;;;;;;;8.52;1.33;;;;;;;;;;5024138;28;20068;-77
2023/04/11 08:40:05;;;;;;;9.90;1.10;;;;;;;;;;5022803;28;20054;-77
2023/04/11 08:42:31;;;;;;;11.52;1.90;;;;;;;;;;5015290;28;20101;-77
2023/04/11 08:44:59;;;;;;;6.22;1.23;;;;;;;;;;5021171;28;20059;-78
2023/04/11 08:47:26;;;;;;;11.43;1.65;;;;;;;;;;5018640;28;20052;-79
2023/04/11 08:49:53;;;;;;;9.57;1.70;;;;;;;;;;5018084;28;20068;-77
2023/04/11 08:52:20;;;;;;;10.32;1.30;;;;;;;;;;5021208;28;20607;-77
2023/04/11 08:54:47;;;;;;;8.15;1.50;;;;;;;;;;5022597;28;20057;-76
2023/04/11 08:57:20;;;;;;;4.75;1.08;;;;;;;;;;5014065;28;20096;-75
2023/04/11 08:59:50;;;;;;;11.13;1.65;;;;;;;;;;5024009;28;21098;-77
2023/04/11 09:02:16;;;;;;;6.22;1.40;;;;;;;;;;5023693;28;20169;-76
2023/04/11 09:04:43;;;;;;;10.68;1.63;;;;;;;;;;5010295;28;20080;-76
2023/04/11 09:07:10;;;;;;;7.80;1.02;;;;;;;;;;5009340;28;20077;-75
2023/04/11 09:09:38;;;;;;;8.25;1.45;;;;;;;;;;5019102;28;20097;-77
2023/04/11 09:12:05;;;;;;;7.82;1.05;;;;;;;;;;5004396;28;20055;-77
2023/04/11 09:14:31;;;;;;;12.98;2.28;;;;;;;;;;5020094;28;20061;-77
2023/04/11 09:16:59;;;;;;;6.25;1.02;;;;;;;;;;5019222;28;20056;-77
2023/04/11 09:19:26;;;;;;;5.15;1.27;;;;;;;;;;5012696;28;20049;-78
2023/04/11 09:21:56;;;;;;;6.30;1.23;;;;;;;;;;5012707;28;20117;-76
2023/04/11 09:24:25;;;;;;;7.25;1.38;;;;;;;;;;5021782;28;20176;-77
2023/04/11 09:27:09;;;;;;;6.30;1.10;;;;;;;;;;5015203;28;20046;-77
2023/04/11 09:29:37;;;;;;;8.27;0.90;;;;;;;;;;5010730;28;20058;-77
2023/04/11 09:32:04;;;;;;;5.75;1.15;;;;;;;;;;5006328;28;20551;-76
2023/04/11 09:34:32;;;;;;;9.23;1.65;;;;;;;;;;5017022;28;20062;-77
2023/04/11 09:36:58;;;;;;;7.75;1.15;;;;;;;;;;5015382;28;20058;-75
2023/04/11 09:39:28;;;;;;;6.55;1.30;;;;;;;;;;5018348;28;20053;-75
2023/04/11 09:42:01;;;;;;;7.90;1.10;;;;;;;;;;5024778;28;20087;-77
2023/04/11 09:44:38;;;;;;;7.68;1.27;;;;;;;;;;5028781;28;20054;-80
2023/04/11 09:47:09;;;;;;;4.72;1.20;;;;;;;;;;5030053;28;20202;-80
2023/04/11 09:49:42;;;;;;;3.90;0.93;;;;;;;;;;5026063;28;20188;-80
2023/04/11 09:52:12;;;;;;;6.03;1.05;;;;;;;;;;5016329;28;20121;-79
2023/04/11 09:54:45;;;;;;;3.90;0.90;;;;;;;;;;5013014;28;20117;-79
2023/04/11 09:57:18;;;;;;;9.48;1.35;;;;;;;;;;5010074;28;20058;-79
2023/04/11 09:59:52;;;;;;;5.93;0.93;;;;;;;;;;5028432;28;20034;-80
2023/04/11 10:02:21;;;;;;;5.47;1.08;;;;;;;;;;5029514;28;20054;-80
2023/04/11 10:05:09;;;;;;;10.00;1.23;;;;;;;;;;5024708;28;20069;-80
2023/04/11 10:07:59;;;;;;;5.93;1.13;;;;;;;;;;5013119;28;20497;-79
2023/04/11 10:10:31;;;;;;;8.75;1.08;;;;;;;;;;5011819;28;20807;-80
2023/04/11 10:13:02;;;;;;;6.30;1.13;;;;;;;;;;5017420;28;20057;-79
2023/04/11 10:15:56;;;;;;;6.15;1.25;;;;;;;;;;5017818;28;20054;-81
2023/04/11 10:18:32;;;;;;;2.65;0.80;;;;;;;;;;5011178;28;20066;-81
2023/04/11 10:21:27;;;;;;;5.18;0.90;;;;;;;;;;5022402;28;20038;-80
2023/04/11 10:24:08;;;;;;;4.07;0.93;;;;;;;;;;5014823;28;20500;-81
2023/04/11 10:27:04;;;;;;;6.63;1.52;;;;;;;;;;5020875;28;20156;-82
2023/04/11 10:29:39;;;;;;;5.10;1.05;;;;;;;;;;5019921;28;20888;-80
2023/04/11 10:32:24;;;;;;;5.30;0.93;;;;;;;;;;5022266;28;20065;-81
2023/04/11 10:34:58;;;;;;;9.25;1.40;;;;;;;;;;5016784;28;20058;-82
2023/04/11 10:37:29;;;;;;;6.03;0.80;;;;;;;;;;5009472;28;20062;-81
2023/04/11 10:40:10;;;;;;;5.00;1.20;;;;;;;;;;5018422;28;20532;-82
2023/04/11 10:42:42;;;;;;;8.32;0.98;;;;;;;;;;5023076;28;20049;-82
2023/04/11 10:45:13;;;;;;;;;;;;;;;;;;5008589;28;20074;-81
2023/04/11 10:48:06;;;;;;;5.50;1.00;;;;;;;;;;5009253;28;46736;-79
2023/04/11 10:50:39;;;;;;;4.82;1.15;;;;;;;;;;5015146;28;20082;-81
2023/04/11 10:53:32;;;;;;;3.70;0.80;;;;;;;;;;5022130;28;20041;-81
2023/04/11 10:56:02;;;;;;;8.35;1.08;;;;;;;;;;5018103;28;20064;-81
2023/04/11 10:58:35;;;;;;;5.63;1.10;;;;;;;;;;5029340;28;20042;-80
2023/04/11 11:01:18;;;;;;;6.70;1.02;;;;;;;;;;5011431;28;20069;-80
2023/04/11 11:03:59;;;;;;;6.63;0.93;;;;;;;;;;5021023;28;20046;-78
2023/04/11 11:06:35;;;;;;;7.00;1.40;;;;;;;;;;5014060;28;20082;-79
2023/04/11 11:09:24;;;;;;;4.88;1.05;;;;;;;;;;5027169;28;20102;-80
2023/04/11 11:12:05;;;;;;;4.25;0.90;;;;;;;;;;5016139;28;20149;-79
2023/04/11 11:14:41;;;;;;;8.50;1.45;;;;;;;;;;5021470;28;20137;-78
2023/04/11 11:17:26;;;;;;;10.73;1.70;;;;;;;;;;4987384;28;20058;-79
2023/04/11 11:20:14;;;;;;;8.77;1.30;;;;;;;;;;5025192;28;20043;-78
2023/04/11 11:22:59;;;;;;;6.50;1.23;;;;;;;;;;5039970;28;20054;-79
2023/04/11 11:25:31;;;;;;;8.43;1.48;;;;;;;;;;5037151;28;20096;-79
2023/04/11 11:28:08;;;;;;;7.30;1.15;;;;;;;;;;5028851;28;20054;-78
2023/04/11 11:30:51;;;;;;;4.90;0.80;;;;;;;;;;5038182;28;20093;-78
2023/04/11 11:33:26;;;;;;;5.47;1.00;;;;;;;;;;5027787;28;20661;-80
2023/04/11 11:36:02;;;;;;;8.02;1.30;;;;;;;;;;5029158;28;20076;-78
2023/04/11 11:38:44;;;;;;;6.03;1.33;;;;;;;;;;5026352;28;20114;-79
2023/04/11 11:41:26;;;;;;;6.88;1.20;;;;;;;;;;5037672;28;20098;-78
2023/04/11 11:43:57;;;;;;;3.83;0.98;;;;;;;;;;5029270;28;20060;-79
2023/04/11 11:46:37;;;;;;;4.50;1.00;;;;;;;;;;5036172;28;20152;-78
2023/04/11 11:49:07;;;;;;;6.93;1.10;;;;;;;;;;5037602;28;20065;-78
2023/04/11 11:51:48;;;;;;;6.35;1.13;;;;;;;;;;5042442;28;20069;-79
2023/04/11 11:54:24;;;;;;;6.30;1.40;;;;;;;;;;5028176;28;20054;-79
2023/04/11 11:57:04;;;;;;;7.00;1.73;;;;;;;;;;5019617;28;20092;-78
2023/04/11 11:59:45;;;;;;;4.25;0.98;;;;;;;;;;5027403;28;20058;-78
2023/04/11 12:02:15;;;;;;;6.57;1.30;;;;;;;;;;5041722;28;20105;-78
2023/04/11 12:04:51;;;;;;;5.30;1.10;;;;;;;;;;5040352;28;20042;-81
2023/04/11 12:07:37;;;;;;;7.30;1.40;;;;;;;;;;5034531;28;20064;-80
2023/04/11 12:10:07;;;;;;;8.27;1.45;;;;;;;;;;5018952;28;20068;-81
2023/04/11 12:12:47;;;;;;;8.05;1.63;;;;;;;;;;5031932;28;20064;-78
2023/04/11 12:15:34;;;;;;;6.47;1.58;;;;;;;;;;5015572;28;20062;-76
2023/04/11 12:18:03;;;;;;;3.17;1.00;;;;;;;;;;5033145;28;20132;-77
2023/04/11 12:20:59;;;;;;;5.32;1.42;;;;;;;;;;5027318;28;20054;-82
2023/04/11 12:23:34;;;;;;;8.50;1.70;;;;;;;;;;5032943;28;20061;-78
2023/04/11 12:26:05;;;;;;;9.70;1.42;;;;;;;;;;5024087;28;20101;-78
2023/04/11 12:28:36;;;;;;;6.10;1.23;;;;;;;;;;5023452;28;20061;-79
2023/04/11 12:31:05;;;;;;;5.53;1.15;;;;;;;;;;5027305;28;20097;-78
2023/04/11 12:33:36;;;;;;;7.13;1.15;;;;;;;;;;5048028;28;20050;-78
2023/04/11 12:36:07;;;;;;;6.85;1.20;;;;;;;;;;5014471;28;20074;-77
2023/04/11 12:38:36;;;;;;;3.75;1.00;;;;;;;;;;5016482;28;20125;-77
2023/04/11 12:41:16;;;;;;;7.47;1.38;;;;;;;;;;5016605;28;20336;-77
2023/04/11 12:44:01;;;;;;;7.65;1.38;;;;;;;;;;5023840;28;20046;-78
2023/04/11 12:46:38;;;;;;;6.28;1.30;;;;;;;;;;5022077;28;20050;-76
2023/04/11 12:49:10;;;;;;;4.45;1.30;;;;;;;;;;5024265;28;20088;-78
2023/04/11 12:51:40;;;;;;;4.53;1.08;;;;;;;;;;5020020;28;20050;-77
2023/04/11 12:54:11;;;;;;;6.85;1.38;;;;;;;;;;5021983;28;20038;-78
2023/04/11 12:56:45;;;;;;;7.65;1.27;;;;;;;;;;5030618;28;20114;-77
2023/04/11 12:59:15;;;;;;;6.28;1.27;;;;;;;;;;5036715;28;20210;-78
2023/04/11 13:01:48;;;;;;;6.95;1.30;;;;;;;;;;5022953;28;20054;-77
2023/04/11 13:04:15;;;;;;;3.60;0.95;;;;;;;;;;5024761;28;20169;-78
2023/04/11 13:06:46;;;;;;;5.72;1.05;;;;;;;;;;5022283;28;20053;-77
2023/04/11 13:09:21;;;;;;;4.65;1.02;;;;;;;;;;5023496;28;20049;-78
2023/04/11 13:12:02;;;;;;;6.68;1.52;;;;;;;;;;5018777;28;20058;-77
2023/04/11 13:14:35;;;;;;;8.40;1.55;;;;;;;;;;5019587;28;20076;-77
2023/04/11 13:17:07;;;;;;;5.28;1.15;;;;;;;;;;5022878;28;20487;-77
2023/04/11 13:19:38;;;;;;;6.63;1.20;;;;;;;;;;5035680;28;20050;-77
2023/04/11 13:22:20;;;;;;;5.68;1.10;;;;;;;;;;5023662;28;20654;-77
2023/04/11 13:24:51;;;;;;;6.25;1.48;;;;;;;;;;5017412;28;20058;-77
2023/04/11 13:27:18;;;;;;;7.63;1.50;;;;;;;;;;5015165;28;20058;-77
2023/04/11 13:29:47;;;;;;;7.95;1.30;;;;;;;;;;5027147;28;20054;-77
2023/04/11 13:32:17;;;;;;;6.85;1.38;;;;;;;;;;5034537;28;20049;-77
2023/04/11 13:34:52;;;;;;;7.05;1.40;;;;;;;;;;5034290;28;20069;-77
2023/04/11 13:37:20;;;;;;;;;;;;;;;;;;5024989;28;20054;-77
2023/04/11 13:39:53;;;;;;;5.97;1.25;;;;;;;;;;5021387;28;45632;-76
2023/04/11 13:42:22;;;;;;;5.75;1.30;;;;;;;;;;5024241;28;20494;-76
2023/04/11 13:44:58;;;;;;;9.27;1.40;;;;;;;;;;5026130;28;20065;-76
2023/04/11 13:47:26;;;;;;;4.80;1.00;;;;;;;;;;5018226;28;20052;-78
2023/04/11 13:49:54;;;;;;;5.75;1.20;;;;;;;;;;5027047;28;20609;-77
2023/04/11 13:52:25;;;;;;;11.13;1.52;;;;;;;;;;5023306;28;20101;-78
2023/04/11 13:54:54;;;;;;;5.95;1.02;;;;;;;;;;5025291;28;20146;-78
2023/04/11 13:57:27;;;;;;;5.28;0.90;;;;;;;;;;5027801;28;20858;-80
2023/04/11 13:59:55;;;;;;;8.82;1.60;;;;;;;;;;5040078;28;20105;-77
2023/04/11 14:02:26;;;;;;;6.50;1.33;;;;;;;;;;5031929;28;20284;-80
2023/04/11 14:05:06;;;;;;;7.65;1.40;;;;;;;;;;5020077;28;20559;-77
2023/04/11 14:07:37;;;;;;;8.70;1.65;;;;;;;;;;5025699;28;21434;-78
2023/04/11 14:10:11;;;;;;;7.40;1.15;;;;;;;;;;5026267;28;20836;-78
2023/04/11 14:12:39;;;;;;;7.05;1.02;;;;;;;;;;5021882;28;20847;-78
2023/04/11 14:15:22;;;;;;;7.68;1.40;;;;;;;;;;5019774;28;20939;-77
2023/04/11 14:17:54;;;;;;;7.85;1.17;;;;;;;;;;5010615;28;20098;-77
2023/04/11 14:20:32;;;;;;;4.78;0.98;;;;;;;;;;5020773;28;20042;-77
2023/04/11 14:23:01;;;;;;;4.70;1.20;;;;;;;;;;5019771;28;20960;-78
2023/04/11 14:25:30;;;;;;;5.00;1.00;;;;;;;;;;5024937;28;20069;-81
2023/04/11 14:28:10;;;;;;;6.20;1.05;;;;;;;;;;5032665;28;20862;-80
2023/04/11 14:30:48;;;;;;;5.57;1.20;;;;;;;;;;5021497;28;20881;-80
2023/04/11 14:33:19;;;;;;;5.43;1.13;;;;;;;;;;5026952;28;20065;-80
2023/04/11 14:35:49;;;;;;;7.13;1.10;;;;;;;;;;5023085;28;21433;-80
2023/04/11 14:38:20;;;;;;;6.82;1.48;;;;;;;;;;5030190;28;20065;-79
2023/04/11 14:40:52;;;;;;;7.80;0.90;;;;;;;;;;5030487;28;20527;-79
2023/04/11 14:43:19;;;;;;;14.95;1.73;;;;;;;;;;5026770;28;20058;-79
2023/04/11 14:45:47;;;;;;;7.63;1.45;;;;;;;;;;5036145;28;20884;-80
2023/04/11 14:48:20;;;;;;;7.25;1.55;;;;;;;;;;5026032;28;20046;-78
2023/04/11 14:50:50;;;;;;;6.05;1.10;;;;;;;;;;5043017;28;20062;-77
2023/04/11 14:53:24;;;;;;;5.20;1.45;;;;;;;;;;5031651;28;20907;-80
2023/04/11 14:55:54;;;;;;;3.60;0.80;;;;;;;;;;5025039;28;20824;-79